Impacts METAR Board
IDs:

KSAN - San Diego Intl Arpt, CA, US

Updated at: 1100 UTC 09 Jul 2020
Potential Impact None Slight Moderate High
Time 08/23Z 09/00Z 09/01Z 09/02Z 09/03Z 09/04Z 09/05Z 09/06Z 09/07Z 09/08Z 09/09Z 09/10Z 09/11Z
Temp71 70 69 68 67 66 65 65 65 65 65 64 64
Dewpt58 58 58 58 58 58 58 58 58 58 58 58 58
Altim29.90 29.89 29.89 29.88 29.88 29.88 29.90 29.91 29.91 29.91 29.91 29.90 29.89
VIS10 10 10 10 10 10 10 9 9 9 9 9 9
CIG-- -- -- -- -- -- -- 14 14 12 12 11 12
CoverFEWFEWFEWFEWFEWFEWFEWBKNBKNOVCOVCOVCOVC
FltCatVFRVFRVFRVFRVFRVFRVFRMVFRMVFRMVFRMVFRMVFRMVFR
WX--------------------------
WDir21021022002200220000000
WSpd9 7 7 5 6 0 4 3 0 5 3 0 3
WGst-- -- -- -- -- -- -- -- -- -- -- -- --
Raw hourly METARs
KSAN 082251Z 21009KT 10SM FEW016 22/14 A2990 RMK AO2 SLP123 T02170144
KSAN 082351Z 21007KT 10SM FEW016 21/14 A2989 RMK AO2 SLP121 T02110144 10233 20211 56005
KSAN 090051Z 22007KT 10SM FEW015 21/14 A2989 RMK AO2 SLP120 T02060144
KSAN 090151Z VRB05KT 10SM FEW015 20/14 A2988 RMK AO2 SLP118 T02000144
KSAN 090251Z 22006KT 10SM FEW015 19/14 A2988 RMK AO2 SLP118 T01940144 56004
KSAN 090351Z 00000KT 10SM FEW015 19/14 A2988 RMK AO2 SLP118 T01890144
KSAN 090451Z 22004KT 10SM FEW014 18/14 A2990 RMK AO2 SLP125 T01830144
KSAN 090551Z VRB03KT 9SM BKN014 18/14 A2991 RMK AO2 SLP129 T01830144 10211 20183 51011
KSAN 090651Z 00000KT 9SM BKN014 18/14 A2991 RMK AO2 SLP129 T01830144
KSAN 090751Z VRB05KT 9SM OVC012 18/14 A2991 RMK AO2 SLP128 T01830144 402330183
KSAN 090851Z VRB03KT 9SM OVC012 18/14 A2991 RMK AO2 SLP126 T01830144 58003
KSAN 090951Z 00000KT 9SM OVC011 18/14 A2990 RMK AO2 SLP123 T01780144
KSAN 091051Z VRB03KT 9SM OVC012 18/14 A2989 RMK AO2 SLP121 T01780144



Page loaded:  11:37 UTC  |   04:37 AM Pacific  |   05:37 AM Mountain  |   06:37 AM Central  |   07:37 AM Eastern

 

ADVISORIES

FORECASTS

FORECASTS

OBSERVATIONS

USER TOOLS

ABOUT US